createdAt,value
2022-10-16T00:01:29.816Z,11.28
2022-10-16T00:03:59.115Z,11.28
2022-10-16T00:06:27.871Z,11.34
2022-10-16T00:08:56.062Z,11.31
2022-10-16T00:11:26.442Z,11.41
2022-10-16T00:13:57.704Z,11.36
2022-10-16T00:16:25.885Z,11.48
2022-10-16T00:18:53.499Z,11.57
2022-10-16T00:21:24.424Z,11.58
2022-10-16T00:24:10.886Z,11.69
2022-10-16T00:26:39.594Z,11.53
2022-10-16T00:29:07.923Z,11.55
2022-10-16T00:31:35.376Z,11.49
2022-10-16T00:34:02.637Z,11.40
2022-10-16T00:36:30.218Z,11.61
2022-10-16T00:41:33.742Z,11.73
2022-10-16T00:44:03.390Z,11.79
2022-10-16T00:46:42.787Z,12.02
2022-10-16T00:49:16.774Z,12.08
2022-10-16T00:51:53.594Z,12.32
2022-10-16T00:54:24.686Z,12.57
2022-10-16T00:56:53.960Z,12.66
2022-10-16T00:59:26.127Z,12.73
2022-10-16T01:01:54.473Z,12.77
2022-10-16T01:04:22.371Z,12.97
2022-10-16T01:07:00.271Z,12.81
2022-10-16T01:09:47.719Z,12.82
2022-10-16T01:12:38.530Z,12.91
2022-10-16T01:15:30.679Z,12.87
2022-10-16T01:18:07.538Z,12.87
2022-10-16T01:20:48.634Z,12.83
2022-10-16T01:23:43.312Z,13.00
2022-10-16T01:26:32.949Z,12.88
2022-10-16T01:29:00.393Z,12.91
2022-10-16T01:31:32.852Z,12.96
2022-10-16T01:34:37.177Z,12.94
2022-10-16T01:37:10.738Z,12.96
2022-10-16T01:39:41.037Z,13.08
2022-10-16T01:42:14.359Z,13.18
2022-10-16T01:44:42.324Z,13.08
2022-10-16T01:47:11.803Z,13.20
2022-10-16T01:49:42.620Z,13.30
2022-10-16T01:52:18.463Z,13.39
2022-10-16T01:54:49.902Z,13.39
2022-10-16T01:57:18.631Z,13.41
2022-10-16T01:59:51.001Z,13.31
2022-10-16T02:02:21.456Z,13.45
2022-10-16T02:04:54.600Z,13.46
2022-10-16T02:07:21.808Z,13.46
2022-10-16T02:09:49.413Z,13.37
2022-10-16T02:12:25.474Z,13.27
2022-10-16T02:14:54.121Z,13.17
2022-10-16T02:17:22.168Z,13.08
2022-10-16T02:19:52.161Z,12.93
2022-10-16T02:22:41.877Z,12.72
2022-10-16T02:25:12.159Z,12.56
2022-10-16T02:28:14.073Z,12.68
2022-10-16T02:30:43.942Z,12.58
2022-10-16T02:33:14.731Z,12.47
2022-10-16T02:35:44.820Z,12.49
2022-10-16T02:38:13.586Z,12.48
2022-10-16T02:40:41.879Z,12.38
2022-10-16T02:43:10.104Z,12.46
2022-10-16T02:45:37.702Z,12.42
2022-10-16T02:48:05.368Z,12.40
2022-10-16T02:50:32.942Z,12.40
2022-10-16T02:53:00.087Z,12.42
2022-10-16T02:55:28.851Z,12.48
2022-10-16T02:57:56.153Z,12.46
2022-10-16T03:00:23.518Z,12.52
2022-10-16T03:02:50.992Z,12.48
2022-10-16T03:05:18.859Z,12.43
2022-10-16T03:07:46.039Z,12.43
2022-10-16T03:10:13.555Z,12.38
2022-10-16T03:12:40.802Z,12.44
2022-10-16T03:15:08.687Z,12.41
2022-10-16T03:17:35.943Z,12.42
2022-10-16T03:20:04.312Z,12.35
2022-10-16T03:22:31.776Z,12.37
2022-10-16T03:24:59.180Z,12.40
2022-10-16T03:27:26.507Z,12.40
2022-10-16T03:29:54.108Z,12.52
2022-10-16T03:32:21.422Z,12.55
2022-10-16T03:34:48.800Z,12.64
2022-10-16T03:37:16.006Z,12.75
2022-10-16T03:39:43.439Z,12.85
2022-10-16T03:42:10.578Z,12.87
2022-10-16T03:44:37.921Z,12.70
2022-10-16T03:47:05.279Z,12.70
2022-10-16T03:49:32.692Z,12.73
2022-10-16T03:51:59.874Z,12.67
2022-10-16T03:54:27.307Z,12.81
2022-10-16T03:56:54.434Z,12.80
2022-10-16T03:59:21.900Z,12.78
2022-10-16T04:01:49.048Z,12.76
2022-10-16T04:04:16.413Z,12.74
2022-10-16T04:06:43.568Z,12.75
2022-10-16T04:09:10.901Z,12.66
2022-10-16T04:11:38.269Z,12.75
2022-10-16T04:14:05.888Z,12.71
2022-10-16T04:16:33.055Z,12.80
2022-10-16T04:19:00.422Z,12.89
2022-10-16T04:21:27.576Z,12.83
2022-10-16T04:23:54.970Z,12.94
2022-10-16T04:26:22.096Z,12.97
2022-10-16T04:28:49.516Z,12.96
2022-10-16T04:31:16.770Z,13.02
2022-10-16T04:33:44.998Z,12.91
2022-10-16T04:36:12.204Z,12.74
2022-10-16T04:38:40.637Z,12.81
2022-10-16T04:41:08.660Z,12.86
2022-10-16T04:43:36.350Z,12.76
2022-10-16T04:46:05.686Z,12.64
2022-10-16T04:48:33.274Z,12.72
2022-10-16T04:51:00.982Z,12.68
2022-10-16T04:53:28.430Z,12.71
2022-10-16T04:55:55.611Z,12.77
2022-10-16T04:58:24.267Z,12.80
2022-10-16T05:00:51.454Z,12.92
2022-10-16T05:03:18.961Z,12.78
2022-10-16T05:05:47.267Z,12.66
2022-10-16T05:08:15.902Z,12.73
2022-10-16T05:10:44.703Z,12.76
2022-10-16T05:13:12.770Z,12.83
2022-10-16T05:15:40.133Z,12.83
2022-10-16T05:18:07.474Z,12.87
2022-10-16T05:20:34.662Z,12.84
2022-10-16T05:23:02.208Z,12.99
2022-10-16T05:25:29.839Z,12.84
2022-10-16T05:27:57.204Z,12.84
2022-10-16T05:30:24.614Z,12.89
2022-10-16T05:32:52.408Z,12.93
2022-10-16T05:35:20.469Z,12.99
2022-10-16T05:37:48.178Z,12.99
2022-10-16T05:40:15.922Z,12.93
2022-10-16T05:42:43.308Z,12.91
2022-10-16T05:45:12.847Z,12.85
2022-10-16T05:47:40.371Z,12.94
2022-10-16T05:50:07.900Z,12.90
2022-10-16T05:52:35.404Z,12.96
2022-10-16T05:55:02.570Z,13.05
2022-10-16T05:57:30.037Z,13.09
2022-10-16T05:59:57.274Z,13.26
2022-10-16T06:02:24.619Z,13.13
2022-10-16T06:04:54.699Z,13.20
2022-10-16T06:07:22.814Z,13.33
2022-10-16T06:09:51.235Z,13.34
2022-10-16T06:12:19.297Z,13.47
2022-10-16T06:14:50.295Z,13.25
2022-10-16T06:17:17.679Z,13.31
2022-10-16T06:19:44.884Z,13.39
2022-10-16T06:22:12.250Z,13.48
2022-10-16T06:24:39.458Z,13.51
2022-10-16T06:27:07.583Z,13.50
2022-10-16T06:29:34.827Z,13.65
2022-10-16T06:32:02.318Z,13.66
2022-10-16T06:34:29.469Z,13.73
2022-10-16T06:36:56.901Z,13.71
2022-10-16T06:39:24.085Z,13.73
2022-10-16T06:41:51.571Z,13.61
2022-10-16T06:44:18.815Z,13.54
2022-10-16T06:46:46.221Z,13.59
2022-10-16T06:49:13.367Z,13.57
2022-10-16T06:51:43.322Z,13.58
2022-10-16T06:54:10.949Z,13.65
2022-10-16T06:56:38.748Z,13.56
2022-10-16T06:59:06.021Z,13.42
2022-10-16T07:01:34.308Z,13.05
2022-10-16T07:04:02.238Z,13.19
2022-10-16T07:06:32.745Z,13.18
2022-10-16T07:09:03.047Z,13.12
2022-10-16T07:11:30.639Z,13.18
2022-10-16T07:13:57.800Z,13.33
2022-10-16T07:16:28.561Z,13.32
2022-10-16T07:19:00.762Z,13.28
2022-10-16T07:21:31.383Z,13.14
2022-10-16T07:24:05.159Z,13.20
2022-10-16T07:26:36.065Z,13.38
2022-10-16T07:29:04.707Z,13.25
2022-10-16T07:31:32.761Z,13.33
2022-10-16T07:34:01.485Z,13.50
2022-10-16T07:36:29.385Z,13.27
2022-10-16T07:38:59.000Z,13.26
2022-10-16T07:41:28.838Z,13.46
2022-10-16T07:43:57.534Z,13.37
2022-10-16T07:46:24.931Z,13.37
2022-10-16T07:48:52.144Z,13.31
2022-10-16T07:51:22.353Z,13.24
2022-10-16T07:53:50.388Z,13.57
2022-10-16T07:56:18.794Z,13.73
2022-10-16T07:58:46.575Z,13.63
2022-10-16T08:01:16.312Z,13.87
2022-10-16T08:03:48.310Z,14.11
2022-10-16T08:06:16.412Z,14.14
2022-10-16T08:08:43.690Z,14.21
2022-10-16T08:11:11.265Z,14.15
2022-10-16T08:13:38.694Z,14.17
2022-10-16T08:16:09.341Z,14.14
2022-10-16T08:18:37.498Z,14.22
2022-10-16T08:21:06.345Z,14.38
2022-10-16T08:23:34.340Z,14.45
2022-10-16T08:26:07.851Z,14.54
2022-10-16T08:28:35.848Z,14.46
2022-10-16T08:31:14.856Z,14.54
2022-10-16T08:33:44.606Z,14.12
2022-10-16T08:36:12.529Z,14.32
2022-10-16T08:38:40.342Z,14.32
2022-10-16T08:41:45.151Z,14.29
2022-10-16T08:44:18.051Z,14.41
2022-10-16T08:47:23.927Z,14.26
2022-10-16T08:50:09.690Z,14.51
2022-10-16T08:52:41.653Z,14.47
2022-10-16T08:55:17.929Z,14.50
2022-10-16T08:57:45.420Z,14.56
2022-10-16T09:00:16.356Z,14.64
2022-10-16T09:02:54.009Z,14.27
2022-10-16T09:05:27.010Z,14.40
2022-10-16T09:08:33.002Z,14.46
2022-10-16T09:11:40.726Z,14.70
2022-10-16T09:14:16.028Z,14.88
2022-10-16T09:16:53.319Z,15.10
2022-10-16T09:19:59.844Z,14.92
2022-10-16T09:22:30.206Z,14.93
2022-10-16T09:25:01.960Z,14.76
2022-10-16T09:27:29.530Z,14.88
2022-10-16T09:29:59.671Z,14.89
2022-10-16T09:32:29.250Z,14.49
2022-10-16T09:34:58.498Z,14.71
2022-10-16T09:37:27.238Z,14.66
2022-10-16T09:39:55.735Z,14.80
2022-10-16T09:42:33.963Z,14.81
2022-10-16T09:45:02.015Z,14.84
2022-10-16T09:47:31.468Z,14.92
2022-10-16T09:50:03.136Z,14.85
2022-10-16T09:52:31.326Z,14.86
2022-10-16T09:55:13.607Z,14.72
2022-10-16T09:57:54.284Z,14.73
2022-10-16T10:00:23.633Z,14.81
2022-10-16T10:02:51.890Z,14.93
2022-10-16T10:05:24.407Z,14.98
2022-10-16T10:07:58.601Z,15.01
2022-10-16T10:10:30.152Z,15.01
2022-10-16T10:12:58.160Z,15.09
2022-10-16T10:15:28.962Z,15.06
2022-10-16T10:17:58.278Z,15.10
2022-10-16T10:20:29.790Z,15.06
2022-10-16T10:22:57.669Z,15.13
2022-10-16T10:25:28.114Z,15.17
2022-10-16T10:28:26.356Z,15.24
2022-10-16T10:31:02.940Z,15.24
2022-10-16T10:34:11.896Z,15.31
2022-10-16T10:36:41.987Z,15.26
2022-10-16T10:39:18.071Z,15.30
2022-10-16T10:42:07.756Z,15.28
2022-10-16T10:45:05.573Z,15.34
2022-10-16T10:47:49.817Z,15.39
2022-10-16T10:50:41.518Z,15.54
2022-10-16T10:53:17.573Z,15.57
2022-10-16T10:55:55.314Z,15.72
2022-10-16T10:58:51.818Z,15.82
2022-10-16T11:01:49.605Z,15.94
2022-10-16T11:04:20.087Z,16.17
2022-10-16T11:06:53.449Z,16.23
2022-10-16T11:09:38.093Z,16.26
2022-10-16T11:12:21.256Z,16.66
2022-10-16T11:14:57.762Z,16.92
2022-10-16T11:17:31.847Z,17.33
2022-10-16T11:20:14.563Z,17.26
2022-10-16T11:23:20.172Z,16.69
2022-10-16T11:25:49.342Z,16.66
2022-10-16T11:28:30.903Z,16.90
2022-10-16T11:31:01.548Z,17.04
2022-10-16T11:33:54.946Z,17.12
2022-10-16T11:36:38.648Z,17.07
2022-10-16T11:39:20.920Z,17.14
2022-10-16T11:41:54.495Z,16.88
2022-10-16T11:44:28.601Z,16.89
2022-10-16T11:47:33.937Z,16.81
2022-10-16T11:50:03.476Z,16.76
2022-10-16T11:52:41.960Z,16.75
2022-10-16T11:55:09.222Z,16.67
2022-10-16T11:57:50.543Z,16.90
2022-10-16T12:00:20.511Z,16.96
2022-10-16T12:03:00.103Z,16.84
2022-10-16T12:05:57.970Z,17.20
2022-10-16T12:08:26.184Z,17.34
2022-10-16T12:10:53.832Z,17.59
2022-10-16T12:13:33.359Z,17.85
2022-10-16T12:16:06.628Z,17.97
2022-10-16T12:18:34.375Z,17.99
2022-10-16T12:21:08.573Z,18.03
2022-10-16T12:23:53.943Z,17.87
2022-10-16T12:26:33.547Z,17.81
2022-10-16T12:29:31.093Z,18.08
2022-10-16T12:31:58.759Z,18.08
2022-10-16T12:34:37.487Z,18.23
2022-10-16T12:37:15.878Z,18.17
2022-10-16T12:39:43.504Z,17.98
2022-10-16T12:42:34.511Z,17.56
2022-10-16T12:45:02.963Z,17.22
2022-10-16T12:47:33.241Z,17.22
2022-10-16T12:50:04.140Z,17.15
2022-10-16T12:52:39.485Z,17.15
2022-10-16T12:55:17.627Z,17.19
2022-10-16T12:58:23.363Z,17.30
2022-10-16T13:01:13.329Z,17.26
2022-10-16T13:03:53.753Z,17.23
2022-10-16T13:06:39.970Z,17.31
2022-10-16T13:09:44.717Z,17.43
2022-10-16T13:12:35.848Z,17.71
2022-10-16T13:15:18.377Z,17.52
2022-10-16T13:18:07.961Z,17.54
2022-10-16T13:20:43.309Z,17.37
2022-10-16T13:23:28.075Z,17.32
2022-10-16T13:26:32.620Z,17.22
2022-10-16T13:29:02.527Z,17.15
2022-10-16T13:31:31.013Z,17.12
2022-10-16T13:34:00.920Z,17.11
2022-10-16T13:36:31.364Z,17.13
2022-10-16T13:39:12.684Z,17.02
2022-10-16T13:41:40.058Z,16.95
2022-10-16T13:44:19.529Z,16.99
2022-10-16T13:46:47.300Z,16.89
2022-10-16T13:49:18.953Z,16.98
2022-10-16T13:52:00.749Z,16.93
2022-10-16T13:54:32.587Z,16.89
2022-10-16T13:57:15.673Z,16.88
2022-10-16T13:59:50.388Z,16.93
2022-10-16T14:02:26.843Z,16.92
2022-10-16T14:04:55.541Z,16.84
2022-10-16T14:07:29.986Z,16.76
2022-10-16T14:10:07.941Z,16.84
2022-10-16T14:12:36.008Z,16.91
2022-10-16T14:15:03.804Z,16.85
2022-10-16T14:17:34.438Z,16.71
2022-10-16T14:20:07.129Z,16.57
2022-10-16T14:22:39.056Z,16.63
2022-10-16T14:25:22.084Z,16.64
2022-10-16T14:28:04.827Z,16.38
2022-10-16T14:30:35.879Z,16.32
2022-10-16T14:33:20.996Z,16.22
2022-10-16T14:36:06.944Z,16.41
2022-10-16T14:38:34.698Z,16.30
2022-10-16T14:41:02.747Z,16.45
2022-10-16T14:43:36.806Z,16.33
2022-10-16T14:46:14.927Z,16.35
2022-10-16T14:48:44.317Z,16.27
2022-10-16T14:51:16.312Z,16.06
2022-10-16T14:53:43.583Z,15.79
2022-10-16T14:56:23.654Z,15.68
2022-10-16T14:58:52.151Z,15.49
2022-10-16T15:01:20.424Z,15.29
2022-10-16T15:03:48.001Z,15.31
2022-10-16T15:06:16.857Z,15.38
2022-10-16T15:08:44.552Z,15.22
2022-10-16T15:11:17.782Z,15.35
2022-10-16T15:13:45.125Z,15.13
2022-10-16T15:16:14.541Z,15.21
2022-10-16T15:18:42.440Z,15.06
2022-10-16T15:21:23.586Z,15.10
2022-10-16T15:23:51.796Z,15.21
2022-10-16T15:26:19.325Z,14.95
2022-10-16T15:28:46.697Z,15.10
2022-10-16T15:31:14.382Z,14.98
2022-10-16T15:33:41.704Z,15.00
2022-10-16T15:36:09.375Z,14.78
2022-10-16T15:38:36.734Z,14.81
2022-10-16T15:41:04.221Z,14.68
2022-10-16T15:43:31.444Z,14.56
2022-10-16T15:46:07.433Z,14.51
2022-10-16T15:48:34.834Z,14.45
2022-10-16T15:51:06.454Z,14.34
2022-10-16T15:53:35.044Z,14.37
2022-10-16T15:56:04.341Z,14.24
2022-10-16T15:58:31.590Z,14.22
2022-10-16T16:01:04.534Z,14.20
2022-10-16T16:03:32.597Z,14.19
2022-10-16T16:06:05.112Z,14.05
2022-10-16T16:08:33.620Z,14.10
2022-10-16T16:11:03.547Z,14.04
2022-10-16T16:13:30.811Z,14.16
2022-10-16T16:15:58.333Z,14.13
2022-10-16T16:18:26.137Z,13.95
2022-10-16T16:20:54.300Z,13.99
2022-10-16T16:23:21.626Z,14.01
2022-10-16T16:26:12.425Z,14.10
2022-10-16T16:28:41.556Z,14.00
2022-10-16T16:31:09.648Z,13.91
2022-10-16T16:33:36.879Z,13.87
2022-10-16T16:36:11.613Z,13.97
2022-10-16T16:38:41.982Z,14.01
2022-10-16T16:41:20.745Z,13.94
2022-10-16T16:43:54.408Z,13.87
2022-10-16T16:46:23.515Z,13.84
2022-10-16T16:48:51.498Z,13.63
2022-10-16T16:51:20.804Z,13.54
2022-10-16T16:53:50.525Z,13.67
2022-10-16T16:56:19.121Z,13.69
2022-10-16T16:58:47.615Z,13.56
2022-10-16T17:01:20.384Z,13.61
2022-10-16T17:03:53.215Z,13.70
2022-10-16T17:06:22.344Z,13.64
2022-10-16T17:08:50.607Z,13.57
2022-10-16T17:11:21.460Z,13.45
2022-10-16T17:13:52.472Z,13.49
2022-10-16T17:16:28.356Z,13.45
2022-10-16T17:18:55.632Z,13.40
2022-10-16T17:21:23.336Z,13.47
2022-10-16T17:23:53.375Z,13.53
2022-10-16T17:26:21.082Z,13.51
2022-10-16T17:28:52.401Z,13.29
2022-10-16T17:31:24.329Z,13.27
2022-10-16T17:33:51.931Z,13.39
2022-10-16T17:36:20.783Z,13.30
2022-10-16T17:38:48.542Z,13.25
2022-10-16T17:41:15.907Z,13.21
2022-10-16T17:43:43.147Z,13.13
2022-10-16T17:46:12.168Z,13.09
2022-10-16T17:48:44.199Z,13.15
2022-10-16T17:51:18.833Z,13.21
2022-10-16T17:53:54.689Z,13.20
2022-10-16T17:56:23.361Z,13.07
2022-10-16T17:58:52.706Z,13.18
2022-10-16T18:01:26.170Z,13.13
2022-10-16T18:03:56.174Z,13.24
2022-10-16T18:06:24.176Z,13.14
2022-10-16T18:08:53.041Z,13.14
2022-10-16T18:11:21.211Z,13.01
2022-10-16T18:13:48.854Z,13.09
2022-10-16T18:16:16.429Z,12.99
2022-10-16T18:18:47.207Z,13.09
2022-10-16T18:21:17.230Z,12.79
2022-10-16T18:23:50.803Z,12.59
2022-10-16T18:26:20.766Z,12.56
2022-10-16T18:28:48.422Z,12.41
2022-10-16T18:31:17.703Z,12.44
2022-10-16T18:33:50.715Z,12.30
2022-10-16T18:36:21.611Z,12.40
2022-10-16T18:38:49.444Z,12.44
2022-10-16T18:41:17.153Z,12.53
2022-10-16T18:43:44.455Z,12.62
2022-10-16T18:46:15.497Z,12.68
2022-10-16T18:48:42.975Z,12.83
2022-10-16T18:51:20.399Z,13.00
2022-10-16T18:53:50.337Z,13.07
2022-10-16T18:56:20.003Z,12.99
2022-10-16T18:58:51.027Z,13.09
2022-10-16T19:01:21.814Z,13.21
2022-10-16T19:03:53.445Z,13.16
2022-10-16T19:06:21.377Z,13.14
2022-10-16T19:08:48.607Z,13.31
2022-10-16T19:11:18.776Z,13.31
2022-10-16T19:13:50.173Z,13.35
2022-10-16T19:16:23.901Z,13.43
2022-10-16T19:18:54.353Z,13.29
2022-10-16T19:21:22.884Z,13.33
2022-10-16T19:23:54.742Z,13.19
2022-10-16T19:26:23.566Z,13.30
2022-10-16T19:28:51.968Z,13.00
2022-10-16T19:31:22.692Z,13.05
2022-10-16T19:33:54.614Z,12.99
2022-10-16T19:36:25.336Z,12.85
2022-10-16T19:39:00.795Z,13.05
2022-10-16T19:41:29.264Z,13.09
2022-10-16T19:43:56.525Z,13.20
2022-10-16T19:46:25.615Z,13.09
2022-10-16T19:49:01.165Z,13.10
2022-10-16T19:51:29.662Z,13.15
2022-10-16T19:54:01.887Z,13.19
2022-10-16T19:56:30.953Z,13.24
2022-10-16T19:58:59.238Z,13.28
2022-10-16T20:01:30.450Z,13.15
2022-10-16T20:03:58.785Z,13.11
2022-10-16T20:06:27.065Z,13.18
2022-10-16T20:08:55.488Z,13.12
2022-10-16T20:11:28.534Z,13.16
2022-10-16T20:13:56.374Z,13.05
2022-10-16T20:16:24.685Z,13.06
2022-10-16T20:18:53.242Z,13.04
2022-10-16T20:21:26.083Z,12.95
2022-10-16T20:23:53.700Z,12.68
2022-10-16T20:26:24.101Z,12.60
2022-10-16T20:28:52.435Z,12.78
2022-10-16T20:31:25.931Z,12.93
2022-10-16T20:33:55.009Z,12.90
2022-10-16T20:36:24.300Z,12.85
2022-10-16T20:38:52.376Z,12.89
2022-10-16T20:41:20.416Z,13.00
2022-10-16T20:43:50.238Z,12.92
2022-10-16T20:46:20.933Z,12.95
2022-10-16T20:48:48.356Z,13.02
2022-10-16T20:51:19.992Z,12.83
2022-10-16T20:53:48.776Z,12.92
2022-10-16T20:56:17.527Z,12.69
2022-10-16T20:58:46.033Z,12.59
2022-10-16T21:01:16.298Z,12.50
2022-10-16T21:03:45.032Z,12.54
2022-10-16T21:06:15.457Z,12.47
2022-10-16T21:08:43.751Z,12.23
2022-10-16T21:11:16.070Z,12.06
2022-10-16T21:13:43.659Z,12.01
2022-10-16T21:16:12.580Z,11.94
2022-10-16T21:18:44.266Z,12.06
2022-10-16T21:21:23.626Z,11.96
2022-10-16T21:23:51.880Z,11.86
2022-10-16T21:26:26.070Z,12.04
2022-10-16T21:29:01.642Z,12.17
2022-10-16T21:31:29.922Z,12.09
2022-10-16T21:33:57.649Z,12.13
2022-10-16T21:36:27.974Z,12.09
2022-10-16T21:38:55.907Z,12.20
2022-10-16T21:41:28.306Z,12.20
2022-10-16T21:43:57.006Z,12.07
2022-10-16T21:46:26.851Z,11.96
2022-10-16T21:48:58.646Z,11.91
2022-10-16T21:51:28.005Z,11.85
2022-10-16T21:53:55.860Z,11.81
2022-10-16T21:56:23.588Z,11.91
2022-10-16T21:58:50.922Z,11.75
2022-10-16T22:01:20.820Z,11.87
2022-10-16T22:03:48.643Z,11.84
2022-10-16T22:06:17.832Z,11.78
2022-10-16T22:08:46.849Z,11.74
2022-10-16T22:11:21.581Z,11.61
2022-10-16T22:13:54.273Z,11.72
2022-10-16T22:16:26.491Z,11.61
2022-10-16T22:18:55.610Z,11.55
2022-10-16T22:21:23.875Z,11.42
2022-10-16T22:23:51.726Z,11.52
2022-10-16T22:26:19.399Z,11.49
2022-10-16T22:28:46.617Z,11.60
2022-10-16T22:31:15.239Z,11.63
2022-10-16T22:33:44.026Z,11.73
2022-10-16T22:36:14.015Z,11.62
2022-10-16T22:38:41.525Z,11.56
2022-10-16T22:41:11.617Z,11.56
2022-10-16T22:43:44.525Z,11.47
2022-10-16T22:46:17.652Z,11.62
2022-10-16T22:48:45.227Z,11.77
2022-10-16T22:51:19.581Z,11.94
2022-10-16T22:53:48.441Z,11.83
2022-10-16T22:56:17.608Z,11.66
2022-10-16T22:58:45.132Z,11.70
2022-10-16T23:01:35.551Z,11.59
2022-10-16T23:04:03.282Z,11.50
2022-10-16T23:06:30.696Z,11.39
2022-10-16T23:09:00.558Z,11.34
2022-10-16T23:11:29.695Z,11.42
2022-10-16T23:13:57.653Z,11.22
2022-10-16T23:16:25.843Z,11.26
2022-10-16T23:18:53.351Z,11.28
2022-10-16T23:21:23.839Z,11.11
2022-10-16T23:23:52.497Z,11.10
2022-10-16T23:26:22.855Z,11.17
2022-10-16T23:28:50.408Z,11.14
2022-10-16T23:31:18.931Z,10.97
2022-10-16T23:33:48.273Z,11.13
2022-10-16T23:36:21.002Z,11.16
2022-10-16T23:38:49.825Z,11.38
2022-10-16T23:41:18.689Z,11.24
2022-10-16T23:43:46.356Z,10.96
2022-10-16T23:46:15.102Z,10.79
2022-10-16T23:48:42.662Z,10.82
2022-10-16T23:51:10.343Z,10.90
2022-10-16T23:53:37.787Z,10.93
2022-10-16T23:56:05.603Z,11.13
2022-10-16T23:58:32.755Z,11.21
